sensor_id;sensor_type;location;lat;lon;timestamp;temperature;humidity
13464;DHT22;6804;48.774;9.174;2023-04-25T00:01:16;11.60;99.90
13464;DHT22;6804;48.774;9.174;2023-04-25T00:03:44;11.60;99.90
13464;DHT22;6804;48.774;9.174;2023-04-25T00:06:12;11.70;99.90
13464;DHT22;6804;48.774;9.174;2023-04-25T00:08:40;11.60;99.90
13464;DHT22;6804;48.774;9.174;2023-04-25T00:11:08;11.60;99.90
13464;DHT22;6804;48.774;9.174;2023-04-25T00:13:36;11.70;99.90
13464;DHT22;6804;48.774;9.174;2023-04-25T00:16:07;11.70;99.90
13464;DHT22;6804;48.774;9.174;2023-04-25T00:18:34;11.70;99.90
13464;DHT22;6804;48.774;9.174;2023-04-25T00:21:04;11.70;99.90
13464;DHT22;6804;48.774;9.174;2023-04-25T00:23:34;11.70;99.90
13464;DHT22;6804;48.774;9.174;2023-04-25T00:26:05;11.70;99.90
13464;DHT22;6804;48.774;9.174;2023-04-25T00:28:35;11.70;99.90
13464;DHT22;6804;48.774;9.174;2023-04-25T00:31:04;11.70;99.90
13464;DHT22;6804;48.774;9.174;2023-04-25T00:33:31;11.70;99.90
13464;DHT22;6804;48.774;9.174;2023-04-25T00:36:02;11.70;99.90
13464;DHT22;6804;48.774;9.174;2023-04-25T00:38:29;11.70;99.90
13464;DHT22;6804;48.774;9.174;2023-04-25T00:40:57;11.70;99.90
13464;DHT22;6804;48.774;9.174;2023-04-25T00:43:25;11.70;99.90
13464;DHT22;6804;48.774;9.174;2023-04-25T00:45:53;11.70;99.90
13464;DHT22;6804;48.774;9.174;2023-04-25T00:48:27;11.70;99.90
13464;DHT22;6804;48.774;9.174;2023-04-25T00:50:56;11.60;99.90
13464;DHT22;6804;48.774;9.174;2023-04-25T00:53:25;11.60;99.90
13464;DHT22;6804;48.774;9.174;2023-04-25T00:55:56;11.60;99.90
13464;DHT22;6804;48.774;9.174;2023-04-25T00:58:26;11.50;99.90
13464;DHT22;6804;48.774;9.174;2023-04-25T01:00:53;11.50;99.90
13464;DHT22;6804;48.774;9.174;2023-04-25T01:03:22;11.50;99.90
13464;DHT22;6804;48.774;9.174;2023-04-25T01:05:55;11.50;99.90
13464;DHT22;6804;48.774;9.174;2023-04-25T01:08:25;11.60;99.90
13464;DHT22;6804;48.774;9.174;2023-04-25T01:10:52;11.50;99.90
13464;DHT22;6804;48.774;9.174;2023-04-25T01:13:25;11.40;99.90
13464;DHT22;6804;48.774;9.174;2023-04-25T01:15:52;11.50;99.90
13464;DHT22;6804;48.774;9.174;2023-04-25T01:18:20;11.40;99.90
13464;DHT22;6804;48.774;9.174;2023-04-25T01:20:51;11.50;99.90
13464;DHT22;6804;48.774;9.174;2023-04-25T01:23:21;11.50;99.90
13464;DHT22;6804;48.774;9.174;2023-04-25T01:25:49;11.60;99.90
13464;DHT22;6804;48.774;9.174;2023-04-25T01:28:17;11.60;99.90
13464;DHT22;6804;48.774;9.174;2023-04-25T01:30:47;11.60;99.90
13464;DHT22;6804;48.774;9.174;2023-04-25T01:33:14;11.70;99.90
13464;DHT22;6804;48.774;9.174;2023-04-25T01:35:42;11.60;99.90
13464;DHT22;6804;48.774;9.174;2023-04-25T01:38:10;11.60;99.90
13464;DHT22;6804;48.774;9.174;2023-04-25T01:40:40;11.60;99.90
13464;DHT22;6804;48.774;9.174;2023-04-25T01:43:08;11.60;99.90
13464;DHT22;6804;48.774;9.174;2023-04-25T01:45:37;11.70;99.90
13464;DHT22;6804;48.774;9.174;2023-04-25T01:48:06;11.70;99.90
13464;DHT22;6804;48.774;9.174;2023-04-25T01:50:37;11.70;99.90
13464;DHT22;6804;48.774;9.174;2023-04-25T01:53:05;11.70;99.90
13464;DHT22;6804;48.774;9.174;2023-04-25T01:55:45;11.70;99.90
13464;DHT22;6804;48.774;9.174;2023-04-25T01:58:12;11.70;99.90
13464;DHT22;6804;48.774;9.174;2023-04-25T02:00:40;11.70;99.90
13464;DHT22;6804;48.774;9.174;2023-04-25T02:03:07;11.60;99.90
13464;DHT22;6804;48.774;9.174;2023-04-25T02:05:35;11.60;99.90
13464;DHT22;6804;48.774;9.174;2023-04-25T02:08:04;11.60;99.90
13464;DHT22;6804;48.774;9.174;2023-04-25T02:10:32;11.60;99.90
13464;DHT22;6804;48.774;9.174;2023-04-25T02:13:00;11.60;99.90
13464;DHT22;6804;48.774;9.174;2023-04-25T02:15:28;11.60;99.90
13464;DHT22;6804;48.774;9.174;2023-04-25T02:18:01;11.60;99.90
13464;DHT22;6804;48.774;9.174;2023-04-25T02:20:29;11.60;99.90
13464;DHT22;6804;48.774;9.174;2023-04-25T02:22:57;11.50;99.90
13464;DHT22;6804;48.774;9.174;2023-04-25T02:25:27;11.60;99.90
13464;DHT22;6804;48.774;9.174;2023-04-25T02:27:55;11.50;99.90
13464;DHT22;6804;48.774;9.174;2023-04-25T02:30:28;11.60;99.90
13464;DHT22;6804;48.774;9.174;2023-04-25T02:32:55;11.60;99.90
13464;DHT22;6804;48.774;9.174;2023-04-25T02:35:25;11.50;99.90
13464;DHT22;6804;48.774;9.174;2023-04-25T02:37:58;11.40;99.90
13464;DHT22;6804;48.774;9.174;2023-04-25T02:40:28;11.50;99.90
13464;DHT22;6804;48.774;9.174;2023-04-25T02:42:55;11.40;99.90
13464;DHT22;6804;48.774;9.174;2023-04-25T02:45:23;11.30;99.90
13464;DHT22;6804;48.774;9.174;2023-04-25T02:47:54;11.30;99.90
13464;DHT22;6804;48.774;9.174;2023-04-25T02:50:21;11.30;99.90
13464;DHT22;6804;48.774;9.174;2023-04-25T02:52:48;11.30;99.90
13464;DHT22;6804;48.774;9.174;2023-04-25T02:55:18;11.30;99.90
13464;DHT22;6804;48.774;9.174;2023-04-25T02:57:46;11.30;99.90
13464;DHT22;6804;48.774;9.174;2023-04-25T03:00:14;11.30;99.90
13464;DHT22;6804;48.774;9.174;2023-04-25T03:02:44;11.30;99.90
13464;DHT22;6804;48.774;9.174;2023-04-25T03:05:13;11.30;99.90
13464;DHT22;6804;48.774;9.174;2023-04-25T03:07:40;11.30;99.90
13464;DHT22;6804;48.774;9.174;2023-04-25T03:10:09;11.40;99.90
13464;DHT22;6804;48.774;9.174;2023-04-25T03:12:37;11.40;99.90
13464;DHT22;6804;48.774;9.174;2023-04-25T03:15:08;11.40;99.90
13464;DHT22;6804;48.774;9.174;2023-04-25T03:17:35;11.40;99.90
13464;DHT22;6804;48.774;9.174;2023-04-25T03:20:04;11.40;99.90
13464;DHT22;6804;48.774;9.174;2023-04-25T03:22:40;11.30;99.90
13464;DHT22;6804;48.774;9.174;2023-04-25T03:25:08;11.30;99.90
13464;DHT22;6804;48.774;9.174;2023-04-25T03:27:35;11.30;99.90
13464;DHT22;6804;48.774;9.174;2023-04-25T03:30:03;11.30;99.90
13464;DHT22;6804;48.774;9.174;2023-04-25T03:32:31;11.30;99.90
13464;DHT22;6804;48.774;9.174;2023-04-25T03:35:01;11.30;99.90
13464;DHT22;6804;48.774;9.174;2023-04-25T03:37:29;11.30;99.90
13464;DHT22;6804;48.774;9.174;2023-04-25T03:40:01;11.30;99.90
13464;DHT22;6804;48.774;9.174;2023-04-25T03:42:30;11.30;99.90
13464;DHT22;6804;48.774;9.174;2023-04-25T03:44:57;11.30;99.90
13464;DHT22;6804;48.774;9.174;2023-04-25T03:47:25;11.30;99.90
13464;DHT22;6804;48.774;9.174;2023-04-25T03:49:52;11.20;99.90
13464;DHT22;6804;48.774;9.174;2023-04-25T03:52:22;11.20;99.90
13464;DHT22;6804;48.774;9.174;2023-04-25T03:54:52;11.20;99.90
13464;DHT22;6804;48.774;9.174;2023-04-25T03:57:21;11.10;99.90
13464;DHT22;6804;48.774;9.174;2023-04-25T03:59:48;11.10;99.90
13464;DHT22;6804;48.774;9.174;2023-04-25T04:02:15;11.10;99.90
13464;DHT22;6804;48.774;9.174;2023-04-25T04:04:42;11.10;99.90
13464;DHT22;6804;48.774;9.174;2023-04-25T04:07:10;11.20;99.90
13464;DHT22;6804;48.774;9.174;2023-04-25T04:09:39;11.20;99.90
13464;DHT22;6804;48.774;9.174;2023-04-25T04:12:07;11.20;99.90
13464;DHT22;6804;48.774;9.174;2023-04-25T04:14:35;11.20;99.90
13464;DHT22;6804;48.774;9.174;2023-04-25T04:17:03;11.20;99.90
13464;DHT22;6804;48.774;9.174;2023-04-25T04:19:31;11.10;99.90
13464;DHT22;6804;48.774;9.174;2023-04-25T04:22:01;11.10;99.90
13464;DHT22;6804;48.774;9.174;2023-04-25T04:24:29;11.10;99.90
13464;DHT22;6804;48.774;9.174;2023-04-25T04:26:56;11.10;99.90
13464;DHT22;6804;48.774;9.174;2023-04-25T04:29:24;11.10;99.90
13464;DHT22;6804;48.774;9.174;2023-04-25T04:31:53;11.20;99.90
13464;DHT22;6804;48.774;9.174;2023-04-25T04:34:20;11.10;99.90
13464;DHT22;6804;48.774;9.174;2023-04-25T04:36:50;11.10;99.90
13464;DHT22;6804;48.774;9.174;2023-04-25T04:39:17;11.10;99.90
13464;DHT22;6804;48.774;9.174;2023-04-25T04:41:46;11.10;99.90
13464;DHT22;6804;48.774;9.174;2023-04-25T04:44:13;11.10;99.90
13464;DHT22;6804;48.774;9.174;2023-04-25T04:46:41;11.10;99.90
13464;DHT22;6804;48.774;9.174;2023-04-25T04:49:14;11.10;99.90
13464;DHT22;6804;48.774;9.174;2023-04-25T04:51:41;11.00;99.90
13464;DHT22;6804;48.774;9.174;2023-04-25T04:54:10;11.00;99.90
13464;DHT22;6804;48.774;9.174;2023-04-25T04:56:37;11.00;99.90
13464;DHT22;6804;48.774;9.174;2023-04-25T04:59:10;11.00;99.90
13464;DHT22;6804;48.774;9.174;2023-04-25T05:01:38;11.00;99.90
13464;DHT22;6804;48.774;9.174;2023-04-25T05:04:05;11.00;99.90
13464;DHT22;6804;48.774;9.174;2023-04-25T05:06:34;10.90;99.90
13464;DHT22;6804;48.774;9.174;2023-04-25T05:09:03;10.90;99.90
13464;DHT22;6804;48.774;9.174;2023-04-25T05:11:33;10.90;99.90
13464;DHT22;6804;48.774;9.174;2023-04-25T05:14:03;10.90;99.90
13464;DHT22;6804;48.774;9.174;2023-04-25T05:16:31;10.90;99.90
13464;DHT22;6804;48.774;9.174;2023-04-25T05:19:04;10.90;99.90
13464;DHT22;6804;48.774;9.174;2023-04-25T05:21:32;10.90;99.90
13464;DHT22;6804;48.774;9.174;2023-04-25T05:24:01;10.90;99.90
13464;DHT22;6804;48.774;9.174;2023-04-25T05:26:29;10.90;99.90
13464;DHT22;6804;48.774;9.174;2023-04-25T05:28:57;11.00;99.90
13464;DHT22;6804;48.774;9.174;2023-04-25T05:31:24;11.00;99.90
13464;DHT22;6804;48.774;9.174;2023-04-25T05:33:52;11.00;99.90
13464;DHT22;6804;48.774;9.174;2023-04-25T05:36:23;11.00;99.90
13464;DHT22;6804;48.774;9.174;2023-04-25T05:38:53;11.00;99.90
13464;DHT22;6804;48.774;9.174;2023-04-25T05:41:22;11.10;99.90
13464;DHT22;6804;48.774;9.174;2023-04-25T05:43:50;11.10;99.90
13464;DHT22;6804;48.774;9.174;2023-04-25T05:46:18;11.10;99.90
13464;DHT22;6804;48.774;9.174;2023-04-25T05:48:45;11.10;99.90
13464;DHT22;6804;48.774;9.174;2023-04-25T05:51:13;11.20;99.90
13464;DHT22;6804;48.774;9.174;2023-04-25T05:53:43;11.20;99.90
13464;DHT22;6804;48.774;9.174;2023-04-25T05:56:13;11.20;99.90
13464;DHT22;6804;48.774;9.174;2023-04-25T05:58:43;11.10;99.90
13464;DHT22;6804;48.774;9.174;2023-04-25T06:01:13;11.10;99.90
13464;DHT22;6804;48.774;9.174;2023-04-25T06:03:44;11.00;99.90
13464;DHT22;6804;48.774;9.174;2023-04-25T06:06:15;11.00;99.90
13464;DHT22;6804;48.774;9.174;2023-04-25T06:08:43;11.00;99.90
13464;DHT22;6804;48.774;9.174;2023-04-25T06:11:14;11.00;99.90
13464;DHT22;6804;48.774;9.174;2023-04-25T06:13:43;11.00;99.90
13464;DHT22;6804;48.774;9.174;2023-04-25T06:16:14;10.90;99.90
13464;DHT22;6804;48.774;9.174;2023-04-25T06:18:44;11.00;99.90
13464;DHT22;6804;48.774;9.174;2023-04-25T06:21:14;10.90;99.90
13464;DHT22;6804;48.774;9.174;2023-04-25T06:23:44;10.90;99.90
13464;DHT22;6804;48.774;9.174;2023-04-25T06:26:15;10.90;99.90
13464;DHT22;6804;48.774;9.174;2023-04-25T06:28:44;10.90;99.90
13464;DHT22;6804;48.774;9.174;2023-04-25T06:31:14;11.00;99.90
13464;DHT22;6804;48.774;9.174;2023-04-25T06:33:46;11.10;99.90
13464;DHT22;6804;48.774;9.174;2023-04-25T06:36:14;11.10;99.90
13464;DHT22;6804;48.774;9.174;2023-04-25T06:38:42;11.20;99.90
13464;DHT22;6804;48.774;9.174;2023-04-25T06:41:10;11.20;99.90
13464;DHT22;6804;48.774;9.174;2023-04-25T06:43:37;11.20;99.90
13464;DHT22;6804;48.774;9.174;2023-04-25T06:46:06;11.20;99.90
13464;DHT22;6804;48.774;9.174;2023-04-25T06:48:36;11.30;99.90
13464;DHT22;6804;48.774;9.174;2023-04-25T06:51:04;11.30;99.90
13464;DHT22;6804;48.774;9.174;2023-04-25T06:53:32;11.30;99.90
13464;DHT22;6804;48.774;9.174;2023-04-25T06:55:59;11.30;99.90
13464;DHT22;6804;48.774;9.174;2023-04-25T06:58:29;11.40;99.90
13464;DHT22;6804;48.774;9.174;2023-04-25T07:00:57;11.30;99.90
13464;DHT22;6804;48.774;9.174;2023-04-25T07:03:26;11.30;99.90
13464;DHT22;6804;48.774;9.174;2023-04-25T07:05:53;11.30;99.90
13464;DHT22;6804;48.774;9.174;2023-04-25T07:08:21;11.30;99.90
13464;DHT22;6804;48.774;9.174;2023-04-25T07:10:48;11.30;99.90
13464;DHT22;6804;48.774;9.174;2023-04-25T07:13:16;11.30;99.90
13464;DHT22;6804;48.774;9.174;2023-04-25T07:15:46;11.30;99.90
13464;DHT22;6804;48.774;9.174;2023-04-25T07:18:14;11.30;99.90
13464;DHT22;6804;48.774;9.174;2023-04-25T07:20:46;11.20;99.90
13464;DHT22;6804;48.774;9.174;2023-04-25T07:23:14;11.20;99.90
13464;DHT22;6804;48.774;9.174;2023-04-25T07:25:41;11.20;99.90
13464;DHT22;6804;48.774;9.174;2023-04-25T07:28:12;11.20;99.90
13464;DHT22;6804;48.774;9.174;2023-04-25T07:30:39;11.30;99.90
13464;DHT22;6804;48.774;9.174;2023-04-25T07:33:09;11.30;99.90
13464;DHT22;6804;48.774;9.174;2023-04-25T07:35:39;11.30;99.90
13464;DHT22;6804;48.774;9.174;2023-04-25T07:38:08;11.20;99.90
13464;DHT22;6804;48.774;9.174;2023-04-25T07:40:36;11.20;99.90
13464;DHT22;6804;48.774;9.174;2023-04-25T07:43:04;11.20;99.90
13464;DHT22;6804;48.774;9.174;2023-04-25T07:45:31;11.20;99.90
13464;DHT22;6804;48.774;9.174;2023-04-25T07:48:00;11.20;99.90
13464;DHT22;6804;48.774;9.174;2023-04-25T07:50:28;11.20;99.90
13464;DHT22;6804;48.774;9.174;2023-04-25T07:52:56;11.20;99.90
13464;DHT22;6804;48.774;9.174;2023-04-25T07:55:31;11.30;99.90
13464;DHT22;6804;48.774;9.174;2023-04-25T07:57:58;11.20;99.90
13464;DHT22;6804;48.774;9.174;2023-04-25T08:00:29;11.30;99.90
13464;DHT22;6804;48.774;9.174;2023-04-25T08:02:56;11.30;99.90
13464;DHT22;6804;48.774;9.174;2023-04-25T08:05:26;11.30;99.90
13464;DHT22;6804;48.774;9.174;2023-04-25T08:07:53;11.30;99.90
13464;DHT22;6804;48.774;9.174;2023-04-25T08:10:23;11.20;99.90
13464;DHT22;6804;48.774;9.174;2023-04-25T08:12:58;11.20;99.90
13464;DHT22;6804;48.774;9.174;2023-04-25T08:15:26;11.10;99.90
13464;DHT22;6804;48.774;9.174;2023-04-25T08:17:53;11.10;99.90
13464;DHT22;6804;48.774;9.174;2023-04-25T08:20:21;11.20;99.90
13464;DHT22;6804;48.774;9.174;2023-04-25T08:22:48;11.10;99.90
13464;DHT22;6804;48.774;9.174;2023-04-25T08:25:16;11.10;99.90
13464;DHT22;6804;48.774;9.174;2023-04-25T08:27:44;11.10;99.90
13464;DHT22;6804;48.774;9.174;2023-04-25T08:30:16;11.10;99.90
13464;DHT22;6804;48.774;9.174;2023-04-25T08:32:44;11.00;99.90
13464;DHT22;6804;48.774;9.174;2023-04-25T08:35:14;11.00;99.90
13464;DHT22;6804;48.774;9.174;2023-04-25T08:37:43;11.00;99.90
13464;DHT22;6804;48.774;9.174;2023-04-25T08:40:13;11.10;99.90
13464;DHT22;6804;48.774;9.174;2023-04-25T08:42:44;11.00;99.90
13464;DHT22;6804;48.774;9.174;2023-04-25T08:45:14;11.00;99.90
13464;DHT22;6804;48.774;9.174;2023-04-25T08:47:45;11.00;99.90
13464;DHT22;6804;48.774;9.174;2023-04-25T08:50:17;11.00;99.90
13464;DHT22;6804;48.774;9.174;2023-04-25T08:52:49;11.10;99.90
13464;DHT22;6804;48.774;9.174;2023-04-25T08:55:18;11.10;99.90
13464;DHT22;6804;48.774;9.174;2023-04-25T08:57:47;11.10;99.90
13464;DHT22;6804;48.774;9.174;2023-04-25T09:00:26;11.20;99.90
13464;DHT22;6804;48.774;9.174;2023-04-25T09:02:54;11.20;99.90
13464;DHT22;6804;48.774;9.174;2023-04-25T09:05:25;11.10;99.90
13464;DHT22;6804;48.774;9.174;2023-04-25T09:07:55;11.10;99.90
13464;DHT22;6804;48.774;9.174;2023-04-25T09:10:29;11.00;99.90
13464;DHT22;6804;48.774;9.174;2023-04-25T09:13:12;11.00;99.90
13464;DHT22;6804;48.774;9.174;2023-04-25T09:15:52;10.90;99.90
13464;DHT22;6804;48.774;9.174;2023-04-25T09:18:24;10.90;99.90
13464;DHT22;6804;48.774;9.174;2023-04-25T09:21:06;10.90;99.90
13464;DHT22;6804;48.774;9.174;2023-04-25T09:23:40;10.80;99.90
13464;DHT22;6804;48.774;9.174;2023-04-25T09:26:08;10.80;99.90
13464;DHT22;6804;48.774;9.174;2023-04-25T09:28:36;10.80;99.90
13464;DHT22;6804;48.774;9.174;2023-04-25T09:31:06;10.80;99.90
13464;DHT22;6804;48.774;9.174;2023-04-25T09:33:36;10.80;99.90
13464;DHT22;6804;48.774;9.174;2023-04-25T09:36:06;10.80;99.90
13464;DHT22;6804;48.774;9.174;2023-04-25T09:38:41;10.80;99.90
13464;DHT22;6804;48.774;9.174;2023-04-25T09:41:10;10.90;99.90
13464;DHT22;6804;48.774;9.174;2023-04-25T09:43:40;10.90;99.90
13464;DHT22;6804;48.774;9.174;2023-04-25T09:46:13;10.90;99.90
13464;DHT22;6804;48.774;9.174;2023-04-25T09:48:50;11.00;99.90
13464;DHT22;6804;48.774;9.174;2023-04-25T09:51:19;10.90;99.90
13464;DHT22;6804;48.774;9.174;2023-04-25T09:53:47;10.90;99.90
13464;DHT22;6804;48.774;9.174;2023-04-25T09:56:19;10.90;99.90
13464;DHT22;6804;48.774;9.174;2023-04-25T09:58:47;10.90;99.90
13464;DHT22;6804;48.774;9.174;2023-04-25T10:01:19;10.80;99.90
13464;DHT22;6804;48.774;9.174;2023-04-25T10:03:50;10.80;99.90
13464;DHT22;6804;48.774;9.174;2023-04-25T10:06:21;10.80;99.90
13464;DHT22;6804;48.774;9.174;2023-04-25T10:08:51;10.80;99.90
13464;DHT22;6804;48.774;9.174;2023-04-25T10:11:21;10.80;99.90
13464;DHT22;6804;48.774;9.174;2023-04-25T10:13:50;10.80;99.90
13464;DHT22;6804;48.774;9.174;2023-04-25T10:16:23;10.80;99.90
13464;DHT22;6804;48.774;9.174;2023-04-25T10:18:52;10.80;99.90
13464;DHT22;6804;48.774;9.174;2023-04-25T10:21:22;10.60;99.90
13464;DHT22;6804;48.774;9.174;2023-04-25T10:23:50;10.70;99.90
13464;DHT22;6804;48.774;9.174;2023-04-25T10:26:18;10.70;99.90
13464;DHT22;6804;48.774;9.174;2023-04-25T10:28:55;10.80;99.90
13464;DHT22;6804;48.774;9.174;2023-04-25T10:31:27;10.80;99.90
13464;DHT22;6804;48.774;9.174;2023-04-25T10:34:01;10.80;99.90
13464;DHT22;6804;48.774;9.174;2023-04-25T10:36:31;10.80;99.90
13464;DHT22;6804;48.774;9.174;2023-04-25T10:39:03;10.80;99.90
13464;DHT22;6804;48.774;9.174;2023-04-25T10:41:46;10.80;99.90
13464;DHT22;6804;48.774;9.174;2023-04-25T10:44:15;10.70;99.90
13464;DHT22;6804;48.774;9.174;2023-04-25T10:46:46;10.60;99.90
13464;DHT22;6804;48.774;9.174;2023-04-25T10:49:35;10.60;99.90
13464;DHT22;6804;48.774;9.174;2023-04-25T10:52:17;10.50;99.90
13464;DHT22;6804;48.774;9.174;2023-04-25T10:54:51;10.50;99.90
13464;DHT22;6804;48.774;9.174;2023-04-25T10:57:32;10.40;99.90
13464;DHT22;6804;48.774;9.174;2023-04-25T11:00:06;10.40;99.90
13464;DHT22;6804;48.774;9.174;2023-04-25T11:02:48;10.40;99.90
13464;DHT22;6804;48.774;9.174;2023-04-25T11:05:31;10.40;99.90
13464;DHT22;6804;48.774;9.174;2023-04-25T11:08:00;10.40;99.90
13464;DHT22;6804;48.774;9.174;2023-04-25T11:10:30;10.30;99.90
13464;DHT22;6804;48.774;9.174;2023-04-25T11:12:59;10.30;99.90
13464;DHT22;6804;48.774;9.174;2023-04-25T11:15:30;10.30;99.90
13464;DHT22;6804;48.774;9.174;2023-04-25T11:18:03;10.30;99.90
13464;DHT22;6804;48.774;9.174;2023-04-25T11:20:33;10.30;99.90
13464;DHT22;6804;48.774;9.174;2023-04-25T11:23:01;10.30;99.90
13464;DHT22;6804;48.774;9.174;2023-04-25T11:25:29;10.30;99.90
13464;DHT22;6804;48.774;9.174;2023-04-25T11:28:00;10.30;99.90
13464;DHT22;6804;48.774;9.174;2023-04-25T11:30:28;10.20;99.90
13464;DHT22;6804;48.774;9.174;2023-04-25T11:33:02;10.10;99.90
13464;DHT22;6804;48.774;9.174;2023-04-25T11:35:33;10.10;99.90
13464;DHT22;6804;48.774;9.174;2023-04-25T11:38:01;10.20;99.90
13464;DHT22;6804;48.774;9.174;2023-04-25T11:40:30;10.20;99.90
13464;DHT22;6804;48.774;9.174;2023-04-25T11:43:05;10.30;99.90
13464;DHT22;6804;48.774;9.174;2023-04-25T11:45:33;10.30;99.90
13464;DHT22;6804;48.774;9.174;2023-04-25T11:48:04;10.30;99.90
13464;DHT22;6804;48.774;9.174;2023-04-25T11:50:34;10.40;99.90
13464;DHT22;6804;48.774;9.174;2023-04-25T11:53:05;10.50;99.90
13464;DHT22;6804;48.774;9.174;2023-04-25T11:55:34;10.50;99.90
13464;DHT22;6804;48.774;9.174;2023-04-25T11:58:04;10.50;99.90
13464;DHT22;6804;48.774;9.174;2023-04-25T12:00:35;10.60;99.90
13464;DHT22;6804;48.774;9.174;2023-04-25T12:03:04;10.60;99.90
13464;DHT22;6804;48.774;9.174;2023-04-25T12:05:35;10.60;99.90
13464;DHT22;6804;48.774;9.174;2023-04-25T12:08:10;10.70;99.90
13464;DHT22;6804;48.774;9.174;2023-04-25T12:10:41;10.70;99.90
13464;DHT22;6804;48.774;9.174;2023-04-25T12:13:27;10.80;99.90
13464;DHT22;6804;48.774;9.174;2023-04-25T12:15:55;10.80;99.90
13464;DHT22;6804;48.774;9.174;2023-04-25T12:18:27;10.80;99.90
13464;DHT22;6804;48.774;9.174;2023-04-25T12:20:55;10.80;99.90
13464;DHT22;6804;48.774;9.174;2023-04-25T12:23:26;10.80;99.90
13464;DHT22;6804;48.774;9.174;2023-04-25T12:25:55;10.90;99.90
13464;DHT22;6804;48.774;9.174;2023-04-25T12:28:25;10.90;99.90
13464;DHT22;6804;48.774;9.174;2023-04-25T12:30:58;10.90;99.90
13464;DHT22;6804;48.774;9.174;2023-04-25T12:33:29;10.90;99.90
13464;DHT22;6804;48.774;9.174;2023-04-25T12:35:57;10.90;99.90
13464;DHT22;6804;48.774;9.174;2023-04-25T12:38:27;10.90;99.90
13464;DHT22;6804;48.774;9.174;2023-04-25T12:40:56;11.00;99.90
13464;DHT22;6804;48.774;9.174;2023-04-25T12:43:27;11.00;99.90
13464;DHT22;6804;48.774;9.174;2023-04-25T12:45:56;10.90;99.90
13464;DHT22;6804;48.774;9.174;2023-04-25T12:48:24;10.90;99.90
13464;DHT22;6804;48.774;9.174;2023-04-25T12:50:56;10.90;99.90
13464;DHT22;6804;48.774;9.174;2023-04-25T12:53:24;11.00;99.90
13464;DHT22;6804;48.774;9.174;2023-04-25T12:55:52;11.10;99.90
13464;DHT22;6804;48.774;9.174;2023-04-25T12:58:22;11.20;99.90
13464;DHT22;6804;48.774;9.174;2023-04-25T13:00:53;11.40;99.90
13464;DHT22;6804;48.774;9.174;2023-04-25T13:03:21;11.50;99.90
13464;DHT22;6804;48.774;9.174;2023-04-25T13:05:49;11.70;99.90
13464;DHT22;6804;48.774;9.174;2023-04-25T13:08:20;11.80;99.90
13464;DHT22;6804;48.774;9.174;2023-04-25T13:10:48;11.90;99.90
13464;DHT22;6804;48.774;9.174;2023-04-25T13:13:16;12.10;99.90
13464;DHT22;6804;48.774;9.174;2023-04-25T13:15:47;12.10;99.90
13464;DHT22;6804;48.774;9.174;2023-04-25T13:18:19;12.30;99.90
13464;DHT22;6804;48.774;9.174;2023-04-25T13:20:47;12.30;99.90
13464;DHT22;6804;48.774;9.174;2023-04-25T13:23:15;12.40;99.90
13464;DHT22;6804;48.774;9.174;2023-04-25T13:25:45;12.40;99.90
13464;DHT22;6804;48.774;9.174;2023-04-25T13:28:13;12.30;99.90
13464;DHT22;6804;48.774;9.174;2023-04-25T13:30:44;12.30;99.90
13464;DHT22;6804;48.774;9.174;2023-04-25T13:33:16;12.30;99.90
13464;DHT22;6804;48.774;9.174;2023-04-25T13:35:47;12.30;99.90
13464;DHT22;6804;48.774;9.174;2023-04-25T13:38:20;12.30;99.90
13464;DHT22;6804;48.774;9.174;2023-04-25T13:40:50;12.30;99.90
13464;DHT22;6804;48.774;9.174;2023-04-25T13:43:19;12.30;99.90
13464;DHT22;6804;48.774;9.174;2023-04-25T13:45:47;12.30;99.90
13464;DHT22;6804;48.774;9.174;2023-04-25T13:48:18;12.30;99.90
13464;DHT22;6804;48.774;9.174;2023-04-25T13:50:49;12.30;99.90
13464;DHT22;6804;48.774;9.174;2023-04-25T13:53:17;12.20;99.90
13464;DHT22;6804;48.774;9.174;2023-04-25T13:55:45;12.20;99.90
13464;DHT22;6804;48.774;9.174;2023-04-25T13:58:17;12.10;99.90
13464;DHT22;6804;48.774;9.174;2023-04-25T14:00:46;12.10;99.90
13464;DHT22;6804;48.774;9.174;2023-04-25T14:03:14;12.20;99.90
13464;DHT22;6804;48.774;9.174;2023-04-25T14:05:44;12.30;99.90
13464;DHT22;6804;48.774;9.174;2023-04-25T14:08:18;12.40;99.90
13464;DHT22;6804;48.774;9.174;2023-04-25T14:10:48;12.40;99.90
13464;DHT22;6804;48.774;9.174;2023-04-25T14:13:18;12.50;99.90
13464;DHT22;6804;48.774;9.174;2023-04-25T14:15:46;12.50;99.90
13464;DHT22;6804;48.774;9.174;2023-04-25T14:18:14;12.60;99.90
13464;DHT22;6804;48.774;9.174;2023-04-25T14:20:44;12.70;99.90
13464;DHT22;6804;48.774;9.174;2023-04-25T14:23:13;12.90;99.90
13464;DHT22;6804;48.774;9.174;2023-04-25T14:25:41;13.10;99.90
13464;DHT22;6804;48.774;9.174;2023-04-25T14:28:10;13.20;99.90
13464;DHT22;6804;48.774;9.174;2023-04-25T14:30:39;13.30;99.90
13464;DHT22;6804;48.774;9.174;2023-04-25T14:33:07;13.40;99.90
13464;DHT22;6804;48.774;9.174;2023-04-25T14:35:37;13.40;99.90
13464;DHT22;6804;48.774;9.174;2023-04-25T14:38:08;13.40;99.90
13464;DHT22;6804;48.774;9.174;2023-04-25T14:40:39;13.50;99.90
13464;DHT22;6804;48.774;9.174;2023-04-25T14:43:12;13.50;99.90
13464;DHT22;6804;48.774;9.174;2023-04-25T14:45:41;13.40;99.90
13464;DHT22;6804;48.774;9.174;2023-04-25T14:48:09;13.40;99.90
13464;DHT22;6804;48.774;9.174;2023-04-25T14:50:37;13.30;99.90
13464;DHT22;6804;48.774;9.174;2023-04-25T14:53:05;13.20;99.90
13464;DHT22;6804;48.774;9.174;2023-04-25T14:55:36;13.10;99.90
13464;DHT22;6804;48.774;9.174;2023-04-25T14:58:04;13.00;99.90
13464;DHT22;6804;48.774;9.174;2023-04-25T15:00:32;13.00;99.90
13464;DHT22;6804;48.774;9.174;2023-04-25T15:03:02;13.00;99.90
13464;DHT22;6804;48.774;9.174;2023-04-25T15:05:30;13.10;99.90
13464;DHT22;6804;48.774;9.174;2023-04-25T15:08:00;13.10;99.90
13464;DHT22;6804;48.774;9.174;2023-04-25T15:10:29;13.20;99.90
13464;DHT22;6804;48.774;9.174;2023-04-25T15:12:59;13.20;99.90
13464;DHT22;6804;48.774;9.174;2023-04-25T15:15:28;13.30;99.90
13464;DHT22;6804;48.774;9.174;2023-04-25T15:18:02;13.30;99.90
13464;DHT22;6804;48.774;9.174;2023-04-25T15:20:30;13.30;99.90
13464;DHT22;6804;48.774;9.174;2023-04-25T15:22:58;13.20;99.90
13464;DHT22;6804;48.774;9.174;2023-04-25T15:25:30;13.20;99.90
13464;DHT22;6804;48.774;9.174;2023-04-25T15:27:59;13.10;99.90
13464;DHT22;6804;48.774;9.174;2023-04-25T15:30:27;13.00;99.90
13464;DHT22;6804;48.774;9.174;2023-04-25T15:32:55;12.90;99.90
13464;DHT22;6804;48.774;9.174;2023-04-25T15:35:24;12.90;99.90
13464;DHT22;6804;48.774;9.174;2023-04-25T15:37:52;12.90;99.90
13464;DHT22;6804;48.774;9.174;2023-04-25T15:40:22;12.80;99.90
13464;DHT22;6804;48.774;9.174;2023-04-25T15:42:50;12.80;99.90
13464;DHT22;6804;48.774;9.174;2023-04-25T15:45:19;12.80;99.90
13464;DHT22;6804;48.774;9.174;2023-04-25T15:47:49;12.80;99.90
13464;DHT22;6804;48.774;9.174;2023-04-25T15:50:21;12.80;99.90
13464;DHT22;6804;48.774;9.174;2023-04-25T15:52:53;12.80;99.90
13464;DHT22;6804;48.774;9.174;2023-04-25T15:55:22;12.70;99.90
13464;DHT22;6804;48.774;9.174;2023-04-25T15:57:51;12.60;99.90
13464;DHT22;6804;48.774;9.174;2023-04-25T16:00:20;12.60;99.90